sensor_id;sensor_type;location;lat;lon;timestamp;P1;durP1;ratioP1;P2;durP2;ratioP2
36009;SDS011;22076;52.182;5.404;2024-03-29T00:01:55;7.55;;;1.60;;
36009;SDS011;22076;52.182;5.404;2024-03-29T00:04:23;3.75;;;1.20;;
36009;SDS011;22076;52.182;5.404;2024-03-29T00:06:49;3.75;;;1.02;;
36009;SDS011;22076;52.182;5.404;2024-03-29T00:09:14;4.43;;;0.88;;
36009;SDS011;22076;52.182;5.404;2024-03-29T00:11:40;4.57;;;1.15;;
36009;SDS011;22076;52.182;5.404;2024-03-29T00:14:05;3.63;;;1.10;;
36009;SDS011;22076;52.182;5.404;2024-03-29T00:16:31;6.07;;;1.10;;
36009;SDS011;22076;52.182;5.404;2024-03-29T00:18:56;5.30;;;1.00;;
36009;SDS011;22076;52.182;5.404;2024-03-29T00:21:23;4.90;;;1.40;;
36009;SDS011;22076;52.182;5.404;2024-03-29T00:23:49;3.83;;;1.20;;
36009;SDS011;22076;52.182;5.404;2024-03-29T00:26:15;6.32;;;1.10;;
36009;SDS011;22076;52.182;5.404;2024-03-29T00:28:40;5.43;;;1.60;;
36009;SDS011;22076;52.182;5.404;2024-03-29T00:31:06;4.43;;;1.13;;
36009;SDS011;22076;52.182;5.404;2024-03-29T00:33:38;7.13;;;1.73;;
36009;SDS011;22076;52.182;5.404;2024-03-29T00:36:04;6.60;;;1.23;;
36009;SDS011;22076;52.182;5.404;2024-03-29T00:38:31;4.75;;;1.25;;
36009;SDS011;22076;52.182;5.404;2024-03-29T00:40:57;4.35;;;1.05;;
36009;SDS011;22076;52.182;5.404;2024-03-29T00:43:22;9.43;;;1.55;;
36009;SDS011;22076;52.182;5.404;2024-03-29T00:45:53;3.10;;;1.05;;
36009;SDS011;22076;52.182;5.404;2024-03-29T00:48:19;4.70;;;1.10;;
36009;SDS011;22076;52.182;5.404;2024-03-29T00:50:44;4.68;;;1.50;;
36009;SDS011;22076;52.182;5.404;2024-03-29T00:53:10;5.20;;;1.05;;
36009;SDS011;22076;52.182;5.404;2024-03-29T00:55:37;9.13;;;2.08;;
36009;SDS011;22076;52.182;5.404;2024-03-29T00:58:03;5.82;;;1.52;;
36009;SDS011;22076;52.182;5.404;2024-03-29T01:00:28;8.38;;;1.77;;
36009;SDS011;22076;52.182;5.404;2024-03-29T01:02:54;6.55;;;1.02;;
36009;SDS011;22076;52.182;5.404;2024-03-29T01:05:20;5.70;;;1.23;;
36009;SDS011;22076;52.182;5.404;2024-03-29T01:07:45;6.05;;;1.13;;
36009;SDS011;22076;52.182;5.404;2024-03-29T01:10:11;5.60;;;0.95;;
36009;SDS011;22076;52.182;5.404;2024-03-29T01:12:38;5.45;;;0.98;;
36009;SDS011;22076;52.182;5.404;2024-03-29T01:15:04;3.28;;;1.00;;
36009;SDS011;22076;52.182;5.404;2024-03-29T01:17:30;4.68;;;1.38;;
36009;SDS011;22076;52.182;5.404;2024-03-29T01:19:56;4.32;;;1.05;;
36009;SDS011;22076;52.182;5.404;2024-03-29T01:22:22;8.38;;;1.30;;
36009;SDS011;22076;52.182;5.404;2024-03-29T01:24:48;6.20;;;1.00;;
36009;SDS011;22076;52.182;5.404;2024-03-29T01:27:14;5.40;;;1.40;;
36009;SDS011;22076;52.182;5.404;2024-03-29T01:32:09;7.30;;;1.33;;
36009;SDS011;22076;52.182;5.404;2024-03-29T01:34:35;5.68;;;0.98;;
36009;SDS011;22076;52.182;5.404;2024-03-29T01:37:00;6.93;;;1.63;;
36009;SDS011;22076;52.182;5.404;2024-03-29T01:39:26;3.60;;;0.98;;
36009;SDS011;22076;52.182;5.404;2024-03-29T01:41:52;6.78;;;1.27;;
36009;SDS011;22076;52.182;5.404;2024-03-29T01:44:17;7.72;;;1.77;;
36009;SDS011;22076;52.182;5.404;2024-03-29T01:46:45;8.30;;;1.08;;
36009;SDS011;22076;52.182;5.404;2024-03-29T01:49:13;6.53;;;1.33;;
36009;SDS011;22076;52.182;5.404;2024-03-29T01:51:40;6.15;;;1.30;;
36009;SDS011;22076;52.182;5.404;2024-03-29T01:54:07;7.53;;;1.45;;
36009;SDS011;22076;52.182;5.404;2024-03-29T01:56:35;6.60;;;1.38;;
36009;SDS011;22076;52.182;5.404;2024-03-29T01:59:05;4.28;;;0.77;;
36009;SDS011;22076;52.182;5.404;2024-03-29T02:01:37;6.55;;;1.25;;
36009;SDS011;22076;52.182;5.404;2024-03-29T02:04:07;3.83;;;0.98;;
36009;SDS011;22076;52.182;5.404;2024-03-29T02:06:43;4.10;;;1.45;;
36009;SDS011;22076;52.182;5.404;2024-03-29T02:09:11;7.57;;;0.80;;
36009;SDS011;22076;52.182;5.404;2024-03-29T02:11:38;5.70;;;1.25;;
36009;SDS011;22076;52.182;5.404;2024-03-29T02:14:05;8.75;;;0.90;;
36009;SDS011;22076;52.182;5.404;2024-03-29T02:16:32;4.45;;;1.10;;
36009;SDS011;22076;52.182;5.404;2024-03-29T02:18:59;5.43;;;1.30;;
36009;SDS011;22076;52.182;5.404;2024-03-29T02:21:27;4.63;;;1.20;;
36009;SDS011;22076;52.182;5.404;2024-03-29T02:23:58;5.30;;;0.98;;
36009;SDS011;22076;52.182;5.404;2024-03-29T02:26:28;11.45;;;1.05;;
36009;SDS011;22076;52.182;5.404;2024-03-29T02:28:58;3.17;;;1.08;;
36009;SDS011;22076;52.182;5.404;2024-03-29T02:31:24;3.67;;;0.88;;
36009;SDS011;22076;52.182;5.404;2024-03-29T02:33:51;7.18;;;1.30;;
36009;SDS011;22076;52.182;5.404;2024-03-29T02:36:17;6.13;;;1.30;;
36009;SDS011;22076;52.182;5.404;2024-03-29T02:38:44;3.25;;;0.80;;
36009;SDS011;22076;52.182;5.404;2024-03-29T02:41:12;3.28;;;0.93;;
36009;SDS011;22076;52.182;5.404;2024-03-29T02:43:38;7.30;;;1.38;;
36009;SDS011;22076;52.182;5.404;2024-03-29T02:46:13;4.43;;;1.17;;
36009;SDS011;22076;52.182;5.404;2024-03-29T02:48:39;2.35;;;0.95;;
36009;SDS011;22076;52.182;5.404;2024-03-29T02:51:05;5.10;;;1.15;;
36009;SDS011;22076;52.182;5.404;2024-03-29T02:53:31;3.17;;;0.77;;
36009;SDS011;22076;52.182;5.404;2024-03-29T02:55:57;5.88;;;1.38;;
36009;SDS011;22076;52.182;5.404;2024-03-29T02:58:25;3.10;;;0.80;;
36009;SDS011;22076;52.182;5.404;2024-03-29T03:00:50;6.07;;;0.93;;
36009;SDS011;22076;52.182;5.404;2024-03-29T03:03:17;2.95;;;0.80;;
36009;SDS011;22076;52.182;5.404;2024-03-29T03:05:42;3.92;;;0.95;;
36009;SDS011;22076;52.182;5.404;2024-03-29T03:08:11;3.38;;;1.23;;
36009;SDS011;22076;52.182;5.404;2024-03-29T03:13:47;3.15;;;0.90;;
36009;SDS011;22076;52.182;5.404;2024-03-29T03:16:14;4.57;;;1.00;;
36009;SDS011;22076;52.182;5.404;2024-03-29T03:18:41;6.55;;;1.13;;
36009;SDS011;22076;52.182;5.404;2024-03-29T03:21:07;5.35;;;1.08;;
36009;SDS011;22076;52.182;5.404;2024-03-29T03:23:33;2.45;;;0.80;;
36009;SDS011;22076;52.182;5.404;2024-03-29T03:26:00;5.65;;;1.45;;
36009;SDS011;22076;52.182;5.404;2024-03-29T03:28:26;7.22;;;1.20;;
36009;SDS011;22076;52.182;5.404;2024-03-29T03:30:56;6.40;;;0.90;;
36009;SDS011;22076;52.182;5.404;2024-03-29T03:33:22;2.97;;;0.73;;
36009;SDS011;22076;52.182;5.404;2024-03-29T03:35:49;4.65;;;1.13;;
36009;SDS011;22076;52.182;5.404;2024-03-29T03:38:22;4.40;;;0.88;;
36009;SDS011;22076;52.182;5.404;2024-03-29T03:40:49;5.47;;;0.90;;
36009;SDS011;22076;52.182;5.404;2024-03-29T03:43:14;7.07;;;1.17;;
36009;SDS011;22076;52.182;5.404;2024-03-29T03:45:49;5.32;;;1.05;;
36009;SDS011;22076;52.182;5.404;2024-03-29T03:48:16;7.97;;;1.23;;
36009;SDS011;22076;52.182;5.404;2024-03-29T03:50:42;5.70;;;1.20;;
36009;SDS011;22076;52.182;5.404;2024-03-29T03:53:22;4.32;;;1.15;;
36009;SDS011;22076;52.182;5.404;2024-03-29T03:55:48;3.45;;;1.13;;
36009;SDS011;22076;52.182;5.404;2024-03-29T03:58:14;4.25;;;0.85;;
36009;SDS011;22076;52.182;5.404;2024-03-29T04:00:47;5.57;;;0.90;;
36009;SDS011;22076;52.182;5.404;2024-03-29T04:03:13;5.13;;;0.90;;
36009;SDS011;22076;52.182;5.404;2024-03-29T04:05:41;3.35;;;0.98;;
36009;SDS011;22076;52.182;5.404;2024-03-29T04:08:12;2.38;;;0.80;;
36009;SDS011;22076;52.182;5.404;2024-03-29T04:10:41;4.25;;;0.85;;
36009;SDS011;22076;52.182;5.404;2024-03-29T04:13:08;3.53;;;0.85;;
36009;SDS011;22076;52.182;5.404;2024-03-29T04:15:42;4.22;;;1.10;;
36009;SDS011;22076;52.182;5.404;2024-03-29T04:18:08;3.20;;;0.80;;
36009;SDS011;22076;52.182;5.404;2024-03-29T04:20:34;4.38;;;1.23;;
36009;SDS011;22076;52.182;5.404;2024-03-29T04:23:03;6.97;;;0.73;;
36009;SDS011;22076;52.182;5.404;2024-03-29T04:25:30;5.13;;;0.93;;
36009;SDS011;22076;52.182;5.404;2024-03-29T04:28:07;3.03;;;0.82;;
36009;SDS011;22076;52.182;5.404;2024-03-29T04:30:34;2.72;;;0.82;;
36009;SDS011;22076;52.182;5.404;2024-03-29T04:33:01;2.63;;;0.75;;
36009;SDS011;22076;52.182;5.404;2024-03-29T04:35:28;7.35;;;1.10;;
36009;SDS011;22076;52.182;5.404;2024-03-29T04:37:53;2.75;;;0.85;;
36009;SDS011;22076;52.182;5.404;2024-03-29T04:40:28;2.47;;;0.73;;
36009;SDS011;22076;52.182;5.404;2024-03-29T04:42:55;4.00;;;0.80;;
36009;SDS011;22076;52.182;5.404;2024-03-29T04:45:21;4.07;;;0.75;;
36009;SDS011;22076;52.182;5.404;2024-03-29T04:47:48;5.25;;;1.13;;
36009;SDS011;22076;52.182;5.404;2024-03-29T04:50:14;6.03;;;1.13;;
36009;SDS011;22076;52.182;5.404;2024-03-29T04:52:43;3.42;;;0.77;;
36009;SDS011;22076;52.182;5.404;2024-03-29T04:55:10;2.33;;;0.60;;
36009;SDS011;22076;52.182;5.404;2024-03-29T04:57:37;2.50;;;0.70;;
36009;SDS011;22076;52.182;5.404;2024-03-29T05:00:04;2.60;;;0.57;;
36009;SDS011;22076;52.182;5.404;2024-03-29T05:02:32;2.53;;;0.95;;
36009;SDS011;22076;52.182;5.404;2024-03-29T05:04:58;1.00;;;0.40;;
36009;SDS011;22076;52.182;5.404;2024-03-29T05:07:25;2.55;;;0.60;;
36009;SDS011;22076;52.182;5.404;2024-03-29T05:09:51;1.52;;;0.47;;
36009;SDS011;22076;52.182;5.404;2024-03-29T05:12:18;5.28;;;0.88;;
36009;SDS011;22076;52.182;5.404;2024-03-29T05:14:46;3.95;;;0.80;;
36009;SDS011;22076;52.182;5.404;2024-03-29T05:17:14;1.00;;;0.55;;
36009;SDS011;22076;52.182;5.404;2024-03-29T05:19:41;2.13;;;0.60;;
36009;SDS011;22076;52.182;5.404;2024-03-29T05:22:18;1.80;;;0.68;;
36009;SDS011;22076;52.182;5.404;2024-03-29T05:24:44;3.22;;;0.73;;
36009;SDS011;22076;52.182;5.404;2024-03-29T05:27:11;2.88;;;0.60;;
36009;SDS011;22076;52.182;5.404;2024-03-29T05:29:38;1.92;;;0.68;;
36009;SDS011;22076;52.182;5.404;2024-03-29T05:32:06;1.80;;;0.68;;
36009;SDS011;22076;52.182;5.404;2024-03-29T05:34:33;2.25;;;0.50;;
36009;SDS011;22076;52.182;5.404;2024-03-29T05:37:15;2.08;;;0.82;;
36009;SDS011;22076;52.182;5.404;2024-03-29T05:39:43;3.30;;;0.52;;
36009;SDS011;22076;52.182;5.404;2024-03-29T05:42:09;3.08;;;0.80;;
36009;SDS011;22076;52.182;5.404;2024-03-29T05:44:43;3.63;;;0.77;;
36009;SDS011;22076;52.182;5.404;2024-03-29T05:47:11;6.32;;;0.70;;
36009;SDS011;22076;52.182;5.404;2024-03-29T05:49:38;2.47;;;0.65;;
36009;SDS011;22076;52.182;5.404;2024-03-29T05:52:14;4.60;;;0.70;;
36009;SDS011;22076;52.182;5.404;2024-03-29T05:54:40;2.33;;;0.63;;
36009;SDS011;22076;52.182;5.404;2024-03-29T05:57:07;3.97;;;0.75;;
36009;SDS011;22076;52.182;5.404;2024-03-29T05:59:34;4.22;;;0.73;;
36009;SDS011;22076;52.182;5.404;2024-03-29T06:02:00;4.63;;;0.85;;
36009;SDS011;22076;52.182;5.404;2024-03-29T06:04:28;1.58;;;0.63;;
36009;SDS011;22076;52.182;5.404;2024-03-29T06:06:58;1.38;;;0.68;;
36009;SDS011;22076;52.182;5.404;2024-03-29T06:09:25;2.90;;;0.65;;
36009;SDS011;22076;52.182;5.404;2024-03-29T06:11:54;1.17;;;0.60;;
36009;SDS011;22076;52.182;5.404;2024-03-29T06:14:21;3.42;;;0.65;;
36009;SDS011;22076;52.182;5.404;2024-03-29T06:17:05;3.53;;;0.57;;
36009;SDS011;22076;52.182;5.404;2024-03-29T06:19:51;3.50;;;0.80;;
36009;SDS011;22076;52.182;5.404;2024-03-29T06:25:11;4.60;;;1.08;;
36009;SDS011;22076;52.182;5.404;2024-03-29T06:27:47;2.95;;;0.98;;
36009;SDS011;22076;52.182;5.404;2024-03-29T06:30:18;3.60;;;0.88;;
36009;SDS011;22076;52.182;5.404;2024-03-29T06:32:45;4.68;;;1.10;;
36009;SDS011;22076;52.182;5.404;2024-03-29T06:35:14;4.88;;;0.80;;
36009;SDS011;22076;52.182;5.404;2024-03-29T06:37:48;2.72;;;1.17;;
36009;SDS011;22076;52.182;5.404;2024-03-29T06:40:25;6.30;;;1.45;;
36009;SDS011;22076;52.182;5.404;2024-03-29T06:42:53;4.13;;;1.00;;
36009;SDS011;22076;52.182;5.404;2024-03-29T06:45:39;3.05;;;0.73;;
36009;SDS011;22076;52.182;5.404;2024-03-29T06:48:10;2.25;;;0.98;;
36009;SDS011;22076;52.182;5.404;2024-03-29T06:50:39;3.00;;;1.08;;
36009;SDS011;22076;52.182;5.404;2024-03-29T06:53:06;3.97;;;0.75;;
36009;SDS011;22076;52.182;5.404;2024-03-29T06:55:50;1.85;;;0.57;;
36009;SDS011;22076;52.182;5.404;2024-03-29T06:58:18;5.50;;;1.27;;
36009;SDS011;22076;52.182;5.404;2024-03-29T07:00:45;3.38;;;1.17;;
36009;SDS011;22076;52.182;5.404;2024-03-29T07:03:16;3.40;;;0.80;;
36009;SDS011;22076;52.182;5.404;2024-03-29T07:05:45;4.40;;;0.70;;
36009;SDS011;22076;52.182;5.404;2024-03-29T07:08:12;3.65;;;1.05;;
36009;SDS011;22076;52.182;5.404;2024-03-29T07:10:38;2.72;;;0.98;;
36009;SDS011;22076;52.182;5.404;2024-03-29T07:15:53;4.75;;;1.05;;
36009;SDS011;22076;52.182;5.404;2024-03-29T07:18:26;0.82;;;0.50;;
36009;SDS011;22076;52.182;5.404;2024-03-29T07:21:11;5.25;;;1.02;;
36009;SDS011;22076;52.182;5.404;2024-03-29T07:23:44;2.95;;;1.10;;
36009;SDS011;22076;52.182;5.404;2024-03-29T07:26:11;4.80;;;0.80;;
36009;SDS011;22076;52.182;5.404;2024-03-29T07:28:37;4.10;;;0.95;;
36009;SDS011;22076;52.182;5.404;2024-03-29T07:31:04;5.47;;;1.30;;
36009;SDS011;22076;52.182;5.404;2024-03-29T07:33:32;5.38;;;1.50;;
36009;SDS011;22076;52.182;5.404;2024-03-29T07:35:59;3.35;;;1.05;;
36009;SDS011;22076;52.182;5.404;2024-03-29T07:38:29;3.65;;;0.80;;
36009;SDS011;22076;52.182;5.404;2024-03-29T07:40:57;1.63;;;0.90;;
36009;SDS011;22076;52.182;5.404;2024-03-29T07:43:23;3.00;;;1.05;;
36009;SDS011;22076;52.182;5.404;2024-03-29T07:46:03;4.70;;;0.80;;
36009;SDS011;22076;52.182;5.404;2024-03-29T07:48:31;2.45;;;1.00;;
36009;SDS011;22076;52.182;5.404;2024-03-29T07:51:11;2.80;;;0.95;;
36009;SDS011;22076;52.182;5.404;2024-03-29T07:53:43;3.35;;;1.20;;
36009;SDS011;22076;52.182;5.404;2024-03-29T07:56:10;1.83;;;0.70;;
36009;SDS011;22076;52.182;5.404;2024-03-29T07:58:37;2.33;;;0.50;;
36009;SDS011;22076;52.182;5.404;2024-03-29T08:01:03;3.80;;;0.60;;
36009;SDS011;22076;52.182;5.404;2024-03-29T08:03:30;3.53;;;1.00;;
36009;SDS011;22076;52.182;5.404;2024-03-29T08:08:31;2.38;;;0.93;;
36009;SDS011;22076;52.182;5.404;2024-03-29T08:11:00;4.00;;;0.98;;
36009;SDS011;22076;52.182;5.404;2024-03-29T08:13:32;2.47;;;1.02;;
36009;SDS011;22076;52.182;5.404;2024-03-29T08:16:01;2.03;;;1.10;;
36009;SDS011;22076;52.182;5.404;2024-03-29T08:18:30;4.28;;;0.98;;
36009;SDS011;22076;52.182;5.404;2024-03-29T08:21:04;2.50;;;1.35;;
36009;SDS011;22076;52.182;5.404;2024-03-29T08:23:38;3.80;;;0.73;;
36009;SDS011;22076;52.182;5.404;2024-03-29T08:26:17;3.08;;;1.05;;
36009;SDS011;22076;52.182;5.404;2024-03-29T08:28:44;2.97;;;0.88;;
36009;SDS011;22076;52.182;5.404;2024-03-29T08:31:25;2.47;;;0.63;;
36009;SDS011;22076;52.182;5.404;2024-03-29T08:33:51;1.40;;;0.70;;
36009;SDS011;22076;52.182;5.404;2024-03-29T08:36:28;4.85;;;0.98;;
36009;SDS011;22076;52.182;5.404;2024-03-29T08:38:57;2.25;;;0.65;;
36009;SDS011;22076;52.182;5.404;2024-03-29T08:41:26;1.80;;;0.77;;
36009;SDS011;22076;52.182;5.404;2024-03-29T08:43:53;3.20;;;0.68;;
36009;SDS011;22076;52.182;5.404;2024-03-29T08:46:33;2.13;;;0.60;;
36009;SDS011;22076;52.182;5.404;2024-03-29T08:51:30;1.42;;;0.73;;
36009;SDS011;22076;52.182;5.404;2024-03-29T08:54:02;1.20;;;0.57;;
36009;SDS011;22076;52.182;5.404;2024-03-29T08:56:31;1.80;;;0.55;;
36009;SDS011;22076;52.182;5.404;2024-03-29T08:59:02;1.45;;;0.57;;
36009;SDS011;22076;52.182;5.404;2024-03-29T09:01:32;1.00;;;0.40;;
36009;SDS011;22076;52.182;5.404;2024-03-29T09:03:59;2.83;;;0.60;;
36009;SDS011;22076;52.182;5.404;2024-03-29T09:06:26;1.80;;;0.65;;
36009;SDS011;22076;52.182;5.404;2024-03-29T09:08:53;0.70;;;0.60;;
36009;SDS011;22076;52.182;5.404;2024-03-29T09:11:21;1.92;;;0.55;;
36009;SDS011;22076;52.182;5.404;2024-03-29T09:13:48;1.15;;;0.65;;
36009;SDS011;22076;52.182;5.404;2024-03-29T09:16:22;1.77;;;0.60;;
36009;SDS011;22076;52.182;5.404;2024-03-29T09:18:55;1.08;;;0.57;;
36009;SDS011;22076;52.182;5.404;2024-03-29T09:21:30;3.10;;;0.60;;
36009;SDS011;22076;52.182;5.404;2024-03-29T09:23:57;3.22;;;0.95;;
36009;SDS011;22076;52.182;5.404;2024-03-29T09:26:24;1.52;;;0.60;;
36009;SDS011;22076;52.182;5.404;2024-03-29T09:29:04;0.90;;;0.60;;
36009;SDS011;22076;52.182;5.404;2024-03-29T09:31:30;4.00;;;0.60;;
36009;SDS011;22076;52.182;5.404;2024-03-29T09:33:57;2.35;;;0.65;;
36009;SDS011;22076;52.182;5.404;2024-03-29T09:36:23;4.07;;;0.73;;
36009;SDS011;22076;52.182;5.404;2024-03-29T09:38:50;5.15;;;1.05;;
36009;SDS011;22076;52.182;5.404;2024-03-29T09:41:17;3.00;;;0.60;;
36009;SDS011;22076;52.182;5.404;2024-03-29T09:43:45;3.40;;;0.98;;
36009;SDS011;22076;52.182;5.404;2024-03-29T09:46:21;3.72;;;0.95;;
36009;SDS011;22076;52.182;5.404;2024-03-29T09:48:49;1.38;;;0.70;;
36009;SDS011;22076;52.182;5.404;2024-03-29T09:51:18;1.42;;;0.70;;
36009;SDS011;22076;52.182;5.404;2024-03-29T09:53:47;2.00;;;0.88;;
36009;SDS011;22076;52.182;5.404;2024-03-29T09:56:16;2.75;;;0.95;;
36009;SDS011;22076;52.182;5.404;2024-03-29T09:58:43;4.55;;;1.00;;
36009;SDS011;22076;52.182;5.404;2024-03-29T10:01:18;1.55;;;1.05;;
36009;SDS011;22076;52.182;5.404;2024-03-29T10:03:51;2.28;;;0.98;;
36009;SDS011;22076;52.182;5.404;2024-03-29T10:08:56;2.70;;;1.08;;
36009;SDS011;22076;52.182;5.404;2024-03-29T10:11:30;4.00;;;0.95;;
36009;SDS011;22076;52.182;5.404;2024-03-29T10:13:59;2.22;;;0.85;;
36009;SDS011;22076;52.182;5.404;2024-03-29T10:16:25;3.97;;;0.90;;
36009;SDS011;22076;52.182;5.404;2024-03-29T10:18:54;4.50;;;0.90;;
36009;SDS011;22076;52.182;5.404;2024-03-29T10:21:29;3.10;;;1.00;;
36009;SDS011;22076;52.182;5.404;2024-03-29T10:24:10;1.15;;;0.70;;
36009;SDS011;22076;52.182;5.404;2024-03-29T10:26:40;4.38;;;1.38;;
36009;SDS011;22076;52.182;5.404;2024-03-29T10:29:13;8.35;;;2.03;;
36009;SDS011;22076;52.182;5.404;2024-03-29T10:31:47;2.35;;;0.80;;
36009;SDS011;22076;52.182;5.404;2024-03-29T10:34:16;1.63;;;0.90;;
36009;SDS011;22076;52.182;5.404;2024-03-29T10:36:45;2.92;;;1.02;;
36009;SDS011;22076;52.182;5.404;2024-03-29T10:39:16;1.58;;;0.77;;
36009;SDS011;22076;52.182;5.404;2024-03-29T10:41:43;2.25;;;0.70;;
36009;SDS011;22076;52.182;5.404;2024-03-29T10:44:14;2.97;;;0.88;;
36009;SDS011;22076;52.182;5.404;2024-03-29T10:46:40;2.80;;;1.00;;
36009;SDS011;22076;52.182;5.404;2024-03-29T10:49:07;1.55;;;1.00;;
36009;SDS011;22076;52.182;5.404;2024-03-29T10:51:41;2.13;;;0.98;;
36009;SDS011;22076;52.182;5.404;2024-03-29T10:54:09;3.15;;;1.15;;
36009;SDS011;22076;52.182;5.404;2024-03-29T10:56:36;1.30;;;0.75;;
36009;SDS011;22076;52.182;5.404;2024-03-29T10:59:12;1.20;;;0.55;;
36009;SDS011;22076;52.182;5.404;2024-03-29T11:01:49;1.65;;;0.93;;
36009;SDS011;22076;52.182;5.404;2024-03-29T11:04:25;2.97;;;1.23;;
36009;SDS011;22076;52.182;5.404;2024-03-29T11:06:58;1.85;;;0.82;;
36009;SDS011;22076;52.182;5.404;2024-03-29T11:09:32;1.27;;;0.70;;
36009;SDS011;22076;52.182;5.404;2024-03-29T11:12:08;2.53;;;1.33;;
36009;SDS011;22076;52.182;5.404;2024-03-29T11:14:39;2.25;;;0.80;;
36009;SDS011;22076;52.182;5.404;2024-03-29T11:17:13;1.92;;;1.25;;
36009;SDS011;22076;52.182;5.404;2024-03-29T11:19:40;3.40;;;1.42;;
36009;SDS011;22076;52.182;5.404;2024-03-29T11:22:10;2.35;;;1.27;;
36009;SDS011;22076;52.182;5.404;2024-03-29T11:24:38;2.85;;;0.90;;
36009;SDS011;22076;52.182;5.404;2024-03-29T11:27:08;4.07;;;0.93;;
36009;SDS011;22076;52.182;5.404;2024-03-29T11:29:35;1.33;;;0.70;;
36009;SDS011;22076;52.182;5.404;2024-03-29T11:32:05;1.88;;;1.00;;
36009;SDS011;22076;52.182;5.404;2024-03-29T11:34:32;2.30;;;1.00;;
36009;SDS011;22076;52.182;5.404;2024-03-29T11:37:06;1.63;;;1.10;;
36009;SDS011;22076;52.182;5.404;2024-03-29T11:39:34;4.78;;;1.10;;
36009;SDS011;22076;52.182;5.404;2024-03-29T11:42:01;2.38;;;0.90;;
36009;SDS011;22076;52.182;5.404;2024-03-29T11:44:27;3.78;;;1.10;;
36009;SDS011;22076;52.182;5.404;2024-03-29T11:46:59;0.75;;;0.73;;
36009;SDS011;22076;52.182;5.404;2024-03-29T11:49:31;1.45;;;0.70;;
36009;SDS011;22076;52.182;5.404;2024-03-29T11:52:04;2.13;;;0.90;;
36009;SDS011;22076;52.182;5.404;2024-03-29T11:54:44;1.70;;;0.90;;
36009;SDS011;22076;52.182;5.404;2024-03-29T11:57:12;2.50;;;1.15;;
36009;SDS011;22076;52.182;5.404;2024-03-29T11:59:40;1.85;;;0.82;;
36009;SDS011;22076;52.182;5.404;2024-03-29T12:02:07;2.47;;;1.30;;
36009;SDS011;22076;52.182;5.404;2024-03-29T12:04:40;2.30;;;0.80;;
36009;SDS011;22076;52.182;5.404;2024-03-29T12:07:06;3.35;;;1.13;;
36009;SDS011;22076;52.182;5.404;2024-03-29T12:09:33;2.25;;;0.82;;
36009;SDS011;22076;52.182;5.404;2024-03-29T12:12:01;2.17;;;1.40;;
36009;SDS011;22076;52.182;5.404;2024-03-29T12:14:33;2.50;;;0.75;;
36009;SDS011;22076;52.182;5.404;2024-03-29T12:17:01;2.45;;;1.08;;
36009;SDS011;22076;52.182;5.404;2024-03-29T12:19:28;1.13;;;0.82;;
36009;SDS011;22076;52.182;5.404;2024-03-29T12:21:56;1.77;;;1.00;;
36009;SDS011;22076;52.182;5.404;2024-03-29T12:24:23;5.78;;;1.52;;
36009;SDS011;22076;52.182;5.404;2024-03-29T12:26:48;1.23;;;0.93;;
36009;SDS011;22076;52.182;5.404;2024-03-29T12:29:17;1.58;;;0.77;;
36009;SDS011;22076;52.182;5.404;2024-03-29T12:31:43;3.40;;;1.20;;
36009;SDS011;22076;52.182;5.404;2024-03-29T12:34:10;1.88;;;1.10;;
36009;SDS011;22076;52.182;5.404;2024-03-29T12:36:47;1.92;;;1.30;;
36009;SDS011;22076;52.182;5.404;2024-03-29T12:39:14;2.63;;;1.58;;
36009;SDS011;22076;52.182;5.404;2024-03-29T12:41:46;2.50;;;1.60;;
36009;SDS011;22076;52.182;5.404;2024-03-29T12:47:02;2.90;;;1.67;;
36009;SDS011;22076;52.182;5.404;2024-03-29T12:49:30;2.90;;;1.70;;
36009;SDS011;22076;52.182;5.404;2024-03-29T12:51:56;2.08;;;1.55;;
36009;SDS011;22076;52.182;5.404;2024-03-29T12:54:23;3.53;;;1.85;;
36009;SDS011;22076;52.182;5.404;2024-03-29T12:56:50;2.72;;;1.67;;
36009;SDS011;22076;52.182;5.404;2024-03-29T12:59:16;2.13;;;1.63;;
36009;SDS011;22076;52.182;5.404;2024-03-29T13:01:44;2.53;;;1.90;;
36009;SDS011;22076;52.182;5.404;2024-03-29T13:04:11;5.53;;;1.75;;
36009;SDS011;22076;52.182;5.404;2024-03-29T13:06:38;2.42;;;1.92;;
36009;SDS011;22076;52.182;5.404;2024-03-29T13:09:07;3.72;;;2.67;;
36009;SDS011;22076;52.182;5.404;2024-03-29T13:11:34;5.25;;;2.67;;
36009;SDS011;22076;52.182;5.404;2024-03-29T13:14:01;4.05;;;2.63;;
36009;SDS011;22076;52.182;5.404;2024-03-29T13:16:27;2.72;;;2.22;;
36009;SDS011;22076;52.182;5.404;2024-03-29T13:18:55;4.20;;;2.90;;
36009;SDS011;22076;52.182;5.404;2024-03-29T13:21:22;4.40;;;3.10;;
36009;SDS011;22076;52.182;5.404;2024-03-29T13:23:48;3.35;;;2.38;;
36009;SDS011;22076;52.182;5.404;2024-03-29T13:26:32;2.42;;;2.15;;
36009;SDS011;22076;52.182;5.404;2024-03-29T13:28:59;2.67;;;2.40;;
36009;SDS011;22076;52.182;5.404;2024-03-29T13:31:25;2.95;;;2.40;;
36009;SDS011;22076;52.182;5.404;2024-03-29T13:33:53;3.67;;;2.00;;
36009;SDS011;22076;52.182;5.404;2024-03-29T13:39:05;3.95;;;2.67;;
36009;SDS011;22076;52.182;5.404;2024-03-29T13:41:32;3.40;;;2.42;;
36009;SDS011;22076;52.182;5.404;2024-03-29T13:44:00;3.35;;;2.17;;
36009;SDS011;22076;52.182;5.404;2024-03-29T13:46:30;3.83;;;2.05;;
36009;SDS011;22076;52.182;5.404;2024-03-29T13:48:57;2.72;;;2.03;;
36009;SDS011;22076;52.182;5.404;2024-03-29T13:54:12;2.15;;;1.45;;
36009;SDS011;22076;52.182;5.404;2024-03-29T13:56:38;3.58;;;1.70;;
36009;SDS011;22076;52.182;5.404;2024-03-29T13:59:05;5.07;;;2.22;;
36009;SDS011;22076;52.182;5.404;2024-03-29T14:01:31;2.42;;;2.03;;
36009;SDS011;22076;52.182;5.404;2024-03-29T14:03:58;2.60;;;1.50;;
36009;SDS011;22076;52.182;5.404;2024-03-29T14:06:24;2.72;;;1.70;;
36009;SDS011;22076;52.182;5.404;2024-03-29T14:09:03;4.80;;;2.08;;
36009;SDS011;22076;52.182;5.404;2024-03-29T14:11:30;2.63;;;1.55;;
36009;SDS011;22076;52.182;5.404;2024-03-29T14:13:56;2.95;;;1.58;;
36009;SDS011;22076;52.182;5.404;2024-03-29T14:16:23;2.58;;;1.67;;
36009;SDS011;22076;52.182;5.404;2024-03-29T14:18:50;3.90;;;1.65;;
36009;SDS011;22076;52.182;5.404;2024-03-29T14:21:16;2.15;;;1.38;;
36009;SDS011;22076;52.182;5.404;2024-03-29T14:23:43;3.00;;;0.93;;
36009;SDS011;22076;52.182;5.404;2024-03-29T14:26:20;2.22;;;1.40;;
36009;SDS011;22076;52.182;5.404;2024-03-29T14:28:46;3.13;;;1.50;;
36009;SDS011;22076;52.182;5.404;2024-03-29T14:31:13;1.52;;;1.10;;
36009;SDS011;22076;52.182;5.404;2024-03-29T14:33:39;1.58;;;1.02;;
36009;SDS011;22076;52.182;5.404;2024-03-29T14:36:06;2.55;;;1.45;;
36009;SDS011;22076;52.182;5.404;2024-03-29T14:38:33;2.78;;;1.42;;
36009;SDS011;22076;52.182;5.404;2024-03-29T14:40:59;1.60;;;1.10;;
36009;SDS011;22076;52.182;5.404;2024-03-29T14:43:27;1.10;;;0.90;;
36009;SDS011;22076;52.182;5.404;2024-03-29T14:45:54;1.50;;;1.00;;
36009;SDS011;22076;52.182;5.404;2024-03-29T14:48:25;2.33;;;1.25;;
36009;SDS011;22076;52.182;5.404;2024-03-29T14:50:52;4.43;;;0.85;;
36009;SDS011;22076;52.182;5.404;2024-03-29T14:53:21;0.80;;;0.80;;
36009;SDS011;22076;52.182;5.404;2024-03-29T14:55:48;2.13;;;0.90;;
36009;SDS011;22076;52.182;5.404;2024-03-29T14:58:15;1.95;;;0.90;;
36009;SDS011;22076;52.182;5.404;2024-03-29T15:00:43;1.95;;;0.70;;
36009;SDS011;22076;52.182;5.404;2024-03-29T15:03:12;2.70;;;0.90;;
36009;SDS011;22076;52.182;5.404;2024-03-29T15:05:54;1.27;;;0.70;;
36009;SDS011;22076;52.182;5.404;2024-03-29T15:08:25;3.55;;;0.73;;
36009;SDS011;22076;52.182;5.404;2024-03-29T15:10:59;3.55;;;0.70;;
36009;SDS011;22076;52.182;5.404;2024-03-29T15:13:28;0.85;;;0.70;;
36009;SDS011;22076;52.182;5.404;2024-03-29T15:15:56;2.35;;;0.90;;
36009;SDS011;22076;52.182;5.404;2024-03-29T15:18:36;1.85;;;0.98;;
36009;SDS011;22076;52.182;5.404;2024-03-29T15:21:03;1.75;;;0.63;;
36009;SDS011;22076;52.182;5.404;2024-03-29T15:23:31;1.55;;;0.75;;
36009;SDS011;22076;52.182;5.404;2024-03-29T15:25:58;1.45;;;0.90;;